EBOS/OST METAR and TAF weather

Enter ICAO airport designator
Station Type Date Time Source
EBOS METAR 2022/06/28 09:50 UTC NOAA

EBOS 280950Z 18006KT 120V230 CAVOK 19/09 Q1021 NOSIG


Station Type Date Time Source
EBOS Decoded METAR 2022/06/28 09:50 UTC NOAA

Oostende Airport , Belgium (EBOS) 51-12N 002-52E 5M
Jun 28, 2022 - 05:50 AM EDT / 2022.06.28 0950 UTC
Wind: from the S (180 degrees) at 7 MPH (6 KT) (direction variable):0
Visibility: greater than 7 mile(s):0
Temperature: 66 F (19 C)
Dew Point: 48 F (9 C)
Relative Humidity: 52%
Pressure (altimeter): 30.15 in. Hg (1021 hPa)
ob: EBOS 280950Z 18006KT 120V230 CAVOK 19/09 Q1021 NOSIG
cycle: 10

Station Type Date Time Source
EBOS TAF 2022/06/28 06:27 UTC NOAA

TAF EBOS 280510Z 2806/2912 21006KT CAVOK
TEMPO 2812/2818 01010KT

Example: see airport list